Time;durP1;ratioP1;P1;durP2;ratioP2;P2;SDS_P1;SDS_P2;PMS_P1;PMS_P2;Temp;Humidity;BMP_temperature;BMP_pressure;BME280_temperature;BME280_humidity;BME280_pressure;Samples;Min_cycle;Max_cycle;Signal;HPM_P1;HPM_P2
2023/03/20 00:02:22;;;;;;;95.47;23.73;;;10.50;99.90;;;;;;5017956;28;20715;-86
2023/03/20 00:05:30;;;;;;;94.93;23.60;;;10.50;99.90;;;;;;5038507;28;20497;-85
2023/03/20 00:08:02;;;;;;;95.18;23.95;;;10.50;99.90;;;;;;5020100;28;20206;-86
2023/03/20 00:11:25;;;;;;;92.20;21.90;;;10.50;99.90;;;;;;5021332;28;20227;-86
2023/03/20 00:14:03;;;;;;;91.72;21.05;;;10.40;99.90;;;;;;5020276;28;20268;-86
2023/03/20 00:16:59;;;;;;;95.15;22.63;;;10.50;99.90;;;;;;5038301;28;20146;-86
2023/03/20 00:19:35;;;;;;;91.93;21.27;;;10.40;99.90;;;;;;5018626;28;20173;-86
2023/03/20 00:22:06;;;;;;;94.32;25.15;;;10.40;99.90;;;;;;5020713;28;20644;-86
2023/03/20 00:24:45;;;;;;;;;;;;;;;;;;;;;
2023/03/20 00:27:47;;;;;;;90.97;23.65;;;10.30;99.90;;;;;;5039456;28;20197;-86
2023/03/20 00:30:46;;;;;;;94.30;22.38;;;10.30;99.90;;;;;;5018718;28;20223;-86
2023/03/20 00:33:26;;;;;;;91.70;20.70;;;10.30;74.50;;;;;;5038188;28;20204;-85
2023/03/20 00:35:57;;;;;;;90.63;22.00;;;10.20;99.90;;;;;;5041739;28;20146;-86
2023/03/20 00:38:28;;;;;;;90.80;22.70;;;10.20;24.80;;;;;;5024082;28;20664;-87
2023/03/20 00:41:00;;;;;;;89.18;22.83;;;10.20;1.00;;;;;;5024347;28;20243;-86
2023/03/20 00:43:29;;;;;;;89.65;22.60;;;10.20;1.00;;;;;;5023605;28;20771;-86
2023/03/20 00:45:58;;;;;;;91.32;23.00;;;10.20;35.90;;;;;;5040852;28;20209;-86
2023/03/20 00:48:24;;;;;;;91.70;21.60;;;10.20;98.80;;;;;;5022598;28;20292;-86
2023/03/20 00:50:53;;;;;;;89.57;22.30;;;10.10;99.90;;;;;;5022304;28;20187;-85
2023/03/20 00:53:23;;;;;;;87.82;22.15;;;10.10;99.90;;;;;;5020309;28;20605;-85
2023/03/20 00:55:52;;;;;;;88.30;21.75;;;10.10;94.00;;;;;;5038046;28;20149;-86
2023/03/20 00:58:23;;;;;;;94.22;22.77;;;10.20;1.00;;;;;;5037924;28;20165;-86
2023/03/20 01:00:55;;;;;;;90.15;24.38;;;10.10;1.00;;;;;;5037388;28;20169;-86
2023/03/20 01:03:28;;;;;;;89.50;23.95;;;10.00;1.00;;;;;;5020355;28;20568;-86
2023/03/20 01:05:56;;;;;;;91.72;22.80;;;10.00;1.00;;;;;;5020906;28;20173;-86
2023/03/20 01:08:31;;;;;;;92.10;23.48;;;10.10;80.90;;;;;;5037690;28;20196;-86
2023/03/20 01:11:00;;;;;;;91.70;23.35;;;10.00;94.70;;;;;;5020789;28;20593;-86
2023/03/20 01:13:31;;;;;;;97.10;24.80;;;10.00;1.00;;;;;;5019166;28;20276;-86
2023/03/20 01:16:06;;;;;;;91.55;23.60;;;10.10;99.90;;;;;;5020566;28;20157;-86
2023/03/20 01:18:36;;;;;;;100.78;22.00;;;10.10;64.20;;;;;;5036679;28;20251;-85
2023/03/20 01:21:02;;;;;;;87.50;21.00;;;10.10;99.90;;;;;;5037928;28;20553;-86
2023/03/20 01:23:31;;;;;;;93.32;23.02;;;10.10;9.50;;;;;;5020008;28;20197;-86
2023/03/20 01:25:57;;;;;;;92.47;23.65;;;10.10;1.00;;;;;;5019687;28;20575;-86
2023/03/20 01:28:26;;;;;;;95.28;21.05;;;10.10;99.90;;;;;;5037441;28;20239;-86
2023/03/20 01:30:52;;;;;;;92.47;22.35;;;10.20;1.00;;;;;;5020269;28;20532;-86
2023/03/20 01:33:30;;;;;;;89.10;23.10;;;10.10;1.00;;;;;;5019712;28;20197;-86
2023/03/20 01:36:02;;;;;;;94.03;22.83;;;10.10;1.00;;;;;;5019454;28;20172;-85
2023/03/20 01:38:30;;;;;;;91.22;21.65;;;10.10;99.90;;;;;;5035599;28;20154;-86
2023/03/20 01:41:06;;;;;;;88.35;20.50;;;10.10;1.00;;;;;;5019603;28;20184;-86
2023/03/20 01:43:33;;;;;;;93.18;19.92;;;10.10;1.00;;;;;;5021414;28;20196;-86
2023/03/20 01:46:35;;;;;;;88.07;19.58;;;10.10;1.00;;;;;;5020750;28;20580;-86
2023/03/20 01:49:27;;;;;;;87.50;19.38;;;10.10;1.00;;;;;;5020645;28;20199;-86
2023/03/20 01:52:02;;;;;;;88.90;22.63;;;10.10;99.90;;;;;;5019488;28;20165;-86
2023/03/20 01:54:40;;;;;;;90.53;22.58;;;10.00;99.90;;;;;;5037609;28;20196;-86
2023/03/20 01:57:20;;;;;;;89.30;21.20;;;10.00;99.90;;;;;;5038578;28;20215;-86
2023/03/20 02:00:03;;;;;;;86.50;21.13;;;10.00;99.90;;;;;;5021791;28;20219;-85
2023/03/20 02:02:34;;;;;;;87.55;21.15;;;9.90;99.90;;;;;;5021277;28;20192;-86
2023/03/20 02:05:09;;;;;;;87.93;23.30;;;9.90;1.00;;;;;;5036634;28;20600;-86
2023/03/20 02:07:38;;;;;;;91.60;21.98;;;9.90;1.00;;;;;;5018659;28;20594;-86
2023/03/20 02:10:10;;;;;;;92.10;22.58;;;9.80;1.00;;;;;;5036043;28;20204;-85
2023/03/20 02:12:42;;;;;;;90.78;22.95;;;9.80;99.90;;;;;;5037853;28;20231;-86
2023/03/20 02:15:08;;;;;;;89.47;21.33;;;9.80;99.90;;;;;;5021424;28;20185;-86
2023/03/20 02:17:41;;;;;;;87.82;20.85;;;9.80;1.00;;;;;;5021606;28;20222;-86
2023/03/20 02:20:20;;;;;;;92.78;21.30;;;9.80;21.00;;;;;;5037325;28;20194;-86
2023/03/20 02:23:16;;;;;;;89.25;21.30;;;9.80;1.00;;;;;;5036949;28;20185;-85
2023/03/20 02:26:12;;;;;;;88.95;21.38;;;9.90;99.90;;;;;;5038066;28;20169;-85
2023/03/20 02:28:54;;;;;;;96.78;22.33;;;9.80;1.00;;;;;;5020654;28;20181;-85
2023/03/20 02:31:38;;;;;;;92.55;20.13;;;9.70;38.10;;;;;;5019922;28;20655;-85
2023/03/20 02:34:40;;;;;;;89.82;21.95;;;9.70;1.00;;;;;;5038310;28;20228;-85
2023/03/20 02:37:43;;;;;;;86.95;20.33;;;9.70;4.10;;;;;;5038685;28;20220;-86
2023/03/20 02:40:15;;;;;;;93.47;23.85;;;9.60;99.90;;;;;;5019798;28;20192;-85
2023/03/20 02:42:59;;;;;;;86.25;20.45;;;9.50;99.90;;;;;;5036400;28;20177;-85
2023/03/20 02:45:35;;;;;;;91.20;20.95;;;9.40;99.90;;;;;;5035708;28;20244;-85
2023/03/20 02:49:01;;;;;;;88.82;21.20;;;9.50;1.00;;;;;;5018639;28;20243;-85
2023/03/20 02:51:29;;;;;;;89.72;21.85;;;9.40;99.90;;;;;;4995026;28;20178;-85
2023/03/20 02:54:06;;;;;;;90.45;22.13;;;9.20;1.00;;;;;;4995117;28;20186;-85
2023/03/20 02:56:50;;;;;;;87.05;20.52;;;9.10;1.00;;;;;;5018618;28;20607;-85
2023/03/20 02:59:30;;;;;;;91.30;21.33;;;8.90;1.00;;;;;;5036564;28;20177;-85
2023/03/20 03:02:04;;;;;;;90.18;22.98;;;8.90;46.10;;;;;;5034933;28;20632;-86
2023/03/20 03:04:36;;;;;;;88.70;20.05;;;8.90;1.00;;;;;;5036739;28;20165;-85
2023/03/20 03:07:08;;;;;;;91.78;21.13;;;8.80;1.00;;;;;;5019039;28;20180;-85
2023/03/20 03:09:50;;;;;;;95.30;23.65;;;8.70;99.90;;;;;;5035247;28;20169;-85
2023/03/20 03:12:22;;;;;;;89.20;20.23;;;8.70;99.90;;;;;;5018614;28;20645;-85
2023/03/20 03:15:10;;;;;;;92.07;20.75;;;8.60;99.90;;;;;;5036340;28;20533;-85
2023/03/20 03:17:37;;;;;;;85.20;17.67;;;8.70;99.90;;;;;;5018055;28;20188;-85
2023/03/20 03:20:29;;;;;;;91.85;22.35;;;8.70;1.00;;;;;;5036479;28;20161;-85
2023/03/20 03:22:55;;;;;;;90.35;22.23;;;8.70;1.00;;;;;;5035679;28;20743;-85
2023/03/20 03:25:28;;;;;;;91.90;21.83;;;8.70;99.90;;;;;;5018375;28;20203;-85
2023/03/20 03:28:20;;;;;;;87.43;22.15;;;8.80;99.90;;;;;;5018525;28;20541;-85
2023/03/20 03:30:53;;;;;;;87.82;20.20;;;8.90;99.90;;;;;;5018992;28;20165;-87
2023/03/20 03:33:26;;;;;;;94.45;20.58;;;9.00;99.90;;;;;;5035448;28;20518;-86
2023/03/20 03:36:04;;;;;;;89.18;19.70;;;9.10;99.90;;;;;;5036119;28;20240;-86
2023/03/20 03:38:56;;;;;;;84.80;18.50;;;9.10;99.90;;;;;;5039642;28;20172;-86
2023/03/20 03:41:58;;;;;;;89.35;20.00;;;9.10;99.90;;;;;;5022290;28;20272;-86
2023/03/20 03:44:56;;;;;;;82.97;16.35;;;9.00;99.90;;;;;;5022226;28;20536;-86
2023/03/20 03:47:31;;;;;;;82.85;15.98;;;9.00;99.90;;;;;;5007583;28;20216;-86
2023/03/20 03:50:14;;;;;;;83.78;15.90;;;8.90;99.90;;;;;;5022608;28;20156;-86
2023/03/20 03:52:43;;;;;;;86.55;19.42;;;8.80;99.90;;;;;;5041740;28;20176;-87
2023/03/20 03:55:24;;;;;;;86.00;17.85;;;8.90;99.90;;;;;;5041980;28;20215;-86
2023/03/20 03:58:00;;;;;;;84.18;16.83;;;8.90;99.90;;;;;;5041653;28;20153;-86
2023/03/20 04:00:27;;;;;;;80.78;16.27;;;9.00;99.90;;;;;;5041489;28;20532;-86
2023/03/20 04:02:58;;;;;;;81.20;15.70;;;9.10;99.90;;;;;;5040001;28;20193;-86
2023/03/20 04:05:34;;;;;;;83.85;18.50;;;9.10;99.90;;;;;;5024999;28;20165;-86
2023/03/20 04:08:02;;;;;;;83.13;17.35;;;9.20;99.90;;;;;;5041536;28;20208;-87
2023/03/20 04:10:28;;;;;;;88.10;19.45;;;9.20;99.90;;;;;;5023366;28;20545;-86
2023/03/20 04:12:56;;;;;;;85.17;17.67;;;9.20;99.90;;;;;;5041167;28;20188;-87
2023/03/20 04:15:22;;;;;;;80.78;16.05;;;9.20;99.90;;;;;;5041005;28;20904;-87
2023/03/20 04:17:48;;;;;;;80.67;15.60;;;9.30;99.90;;;;;;5041063;28;20172;-86
2023/03/20 04:20:15;;;;;;;81.65;18.92;;;9.30;99.90;;;;;;5042673;28;20431;-87
2023/03/20 04:22:41;;;;;;;79.75;17.73;;;9.20;99.90;;;;;;5023079;28;20189;-86
2023/03/20 04:25:09;;;;;;;80.70;16.17;;;9.20;99.90;;;;;;5022894;28;20545;-86
2023/03/20 04:27:35;;;;;;;81.00;16.25;;;9.20;99.90;;;;;;5040793;28;20440;-86
2023/03/20 04:30:00;;;;;;;82.15;15.80;;;9.30;99.90;;;;;;5023841;28;20529;-87
2023/03/20 04:32:26;;;;;;;85.40;16.40;;;9.20;99.90;;;;;;5039063;28;20177;-87
2023/03/20 04:34:52;;;;;;;79.00;16.40;;;9.20;99.90;;;;;;5022080;28;20231;-87
2023/03/20 04:37:18;;;;;;;81.40;17.77;;;9.10;99.90;;;;;;5039817;28;20248;-87
2023/03/20 04:39:47;;;;;;;80.07;16.20;;;9.10;99.90;;;;;;5039889;28;20166;-86
2023/03/20 04:42:16;;;;;;;79.55;16.42;;;9.10;99.90;;;;;;5021596;28;20427;-86
2023/03/20 04:44:47;;;;;;;82.88;19.45;;;8.90;99.90;;;;;;5039224;28;20540;-86
2023/03/20 04:47:21;;;;;;;82.63;19.67;;;8.80;99.90;;;;;;5038024;28;20181;-88
2023/03/20 04:50:07;;;;;;;80.60;19.83;;;8.80;99.90;;;;;;5038867;28;20204;-87
2023/03/20 04:52:39;;;;;;;81.55;17.35;;;8.70;99.90;;;;;;5039505;28;20181;-86
2023/03/20 04:55:08;;;;;;;81.10;18.52;;;8.70;99.90;;;;;;5039590;28;20161;-86
2023/03/20 04:57:46;;;;;;;;;;;;;;;;;;;;;
2023/03/20 05:00:22;;;;;;;79.50;17.98;;;8.50;99.90;;;;;;5039293;28;20152;-87
2023/03/20 05:02:48;;;;;;;80.38;16.05;;;8.50;99.90;;;;;;5039291;28;20188;-87
2023/03/20 05:05:16;;;;;;;82.30;16.80;;;8.50;99.90;;;;;;5021638;28;20543;-88
2023/03/20 05:07:42;;;;;;;78.93;16.52;;;8.50;99.90;;;;;;5021405;28;20284;-87
2023/03/20 05:10:14;;;;;;;82.43;18.80;;;8.50;99.90;;;;;;5038492;28;20201;-86
2023/03/20 05:12:45;;;;;;;80.25;17.92;;;8.50;99.90;;;;;;5022073;28;20227;-86
2023/03/20 05:15:14;;;;;;;82.43;17.42;;;8.50;99.90;;;;;;5022202;28;20342;-87
2023/03/20 05:17:42;;;;;;;81.05;15.18;;;8.40;99.90;;;;;;5040034;28;20161;-86
2023/03/20 05:20:08;;;;;;;79.53;16.02;;;8.30;99.90;;;;;;5037907;28;20540;-86
2023/03/20 05:22:42;;;;;;;94.18;17.42;;;8.40;99.90;;;;;;5039867;28;20181;-86
2023/03/20 05:25:11;;;;;;;79.45;17.27;;;8.40;99.90;;;;;;5021750;28;20656;-86
2023/03/20 05:27:50;;;;;;;80.82;18.13;;;8.40;99.90;;;;;;5023748;28;20217;-87
2023/03/20 05:30:19;;;;;;;82.35;19.63;;;8.30;99.90;;;;;;5022112;28;20173;-86
2023/03/20 05:33:00;;;;;;;79.38;16.52;;;8.40;99.90;;;;;;5039608;28;20189;-86
2023/03/20 05:35:31;;;;;;;79.95;16.30;;;8.30;99.90;;;;;;5022510;28;20157;-87
2023/03/20 05:38:00;;;;;;;79.40;16.55;;;8.30;99.90;;;;;;5022370;28;20173;-86
2023/03/20 05:40:31;;;;;;;84.63;19.17;;;8.30;99.90;;;;;;5021874;28;20540;-87
2023/03/20 05:43:08;;;;;;;83.53;18.42;;;8.20;99.90;;;;;;5038965;28;20633;-86
2023/03/20 05:46:02;;;;;;;80.00;16.52;;;8.20;99.90;;;;;;5021839;28;20506;-86
2023/03/20 05:48:36;;;;;;;80.78;15.85;;;8.20;99.90;;;;;;5039951;28;20224;-87
2023/03/20 05:51:04;;;;;;;87.15;19.77;;;8.20;99.90;;;;;;5022430;28;20198;-86
2023/03/20 05:53:33;;;;;;;86.20;18.88;;;8.20;99.90;;;;;;5039905;28;20181;-86
2023/03/20 05:56:08;;;;;;;81.97;15.93;;;8.10;99.90;;;;;;5021236;28;20165;-86
2023/03/20 05:58:36;;;;;;;83.22;19.48;;;8.20;99.90;;;;;;5022085;28;20167;-86
2023/03/20 06:01:06;;;;;;;81.80;17.50;;;8.20;99.90;;;;;;5037277;28;20303;-86
2023/03/20 06:03:35;;;;;;;79.88;16.50;;;8.10;99.90;;;;;;5038842;28;20185;-86
2023/03/20 06:06:11;;;;;;;80.53;15.50;;;8.10;99.90;;;;;;5038898;28;20207;-86
2023/03/20 06:08:40;;;;;;;80.60;16.65;;;8.10;99.90;;;;;;5039433;28;20185;-86
2023/03/20 06:11:14;;;;;;;84.40;16.55;;;8.10;99.90;;;;;;5038575;28;20168;-86
2023/03/20 06:13:54;;;;;;;83.60;16.92;;;8.10;99.90;;;;;;5021391;28;20287;-86
2023/03/20 06:16:28;;;;;;;79.80;15.98;;;8.10;99.90;;;;;;5038647;28;20177;-86
2023/03/20 06:19:04;;;;;;;86.38;17.33;;;8.10;99.90;;;;;;5022444;28;20588;-85
2023/03/20 06:21:40;;;;;;;82.85;16.15;;;8.20;99.90;;;;;;5020783;28;20168;-86
2023/03/20 06:24:16;;;;;;;85.70;15.68;;;8.10;99.90;;;;;;5020002;28;20200;-85
2023/03/20 06:27:03;;;;;;;84.10;17.48;;;8.10;99.90;;;;;;5038134;28;20173;-86
2023/03/20 06:29:40;;;;;;;88.13;16.83;;;8.00;99.90;;;;;;5037770;28;20153;-85
2023/03/20 06:32:21;;;;;;;;;;;;;;;;;;;;;
2023/03/20 06:34:55;;;;;;;84.15;17.40;;;8.20;99.90;;;;;;5037347;28;20665;-85
2023/03/20 06:37:29;;;;;;;85.07;17.25;;;8.30;99.90;;;;;;5037329;28;20176;-86
2023/03/20 06:39:55;;;;;;;84.95;18.35;;;8.40;99.90;;;;;;5021230;28;20153;-86
2023/03/20 06:42:21;;;;;;;86.65;20.02;;;8.50;99.90;;;;;;5038563;28;20390;-86
2023/03/20 06:44:46;;;;;;;88.40;19.47;;;8.60;99.90;;;;;;5037780;28;20161;-85
2023/03/20 06:47:12;;;;;;;88.80;20.37;;;8.70;99.90;;;;;;5035787;28;20313;-86
2023/03/20 06:49:38;;;;;;;84.23;18.40;;;8.80;99.90;;;;;;5038320;28;20633;-85
2023/03/20 06:52:05;;;;;;;84.93;18.70;;;8.80;99.90;;;;;;5039157;28;20165;-85
2023/03/20 06:54:31;;;;;;;84.03;18.88;;;8.80;99.90;;;;;;5020697;28;20165;-85
2023/03/20 06:56:56;;;;;;;86.57;22.20;;;8.90;99.90;;;;;;5038311;28;20173;-85
2023/03/20 06:59:22;;;;;;;84.80;19.53;;;8.90;99.90;;;;;;5037540;28;20160;-85
2023/03/20 07:01:48;;;;;;;85.20;21.33;;;8.90;99.90;;;;;;5019733;28;20165;-85
2023/03/20 07:04:14;;;;;;;81.37;19.20;;;9.00;99.90;;;;;;5037036;28;20495;-86
2023/03/20 07:06:39;;;;;;;85.90;20.40;;;9.10;99.90;;;;;;5038263;28;20580;-85
2023/03/20 07:09:06;;;;;;;82.20;20.90;;;9.10;1.00;;;;;;5039450;28;20188;-86
2023/03/20 07:11:33;;;;;;;88.40;20.40;;;9.20;1.00;;;;;;5039221;28;20248;-85
2023/03/20 07:14:00;;;;;;;87.15;17.45;;;9.20;99.90;;;;;;5039921;28;20173;-86
2023/03/20 07:16:26;;;;;;;81.72;17.13;;;9.30;99.90;;;;;;5039743;28;20224;-86
2023/03/20 07:18:52;;;;;;;82.18;18.00;;;9.40;99.90;;;;;;5038192;28;20181;-86
2023/03/20 07:21:21;;;;;;;88.55;18.35;;;9.40;99.90;;;;;;5021166;28;20510;-86
2023/03/20 07:23:47;;;;;;;83.25;16.02;;;9.50;99.90;;;;;;5039106;28;20181;-86
2023/03/20 07:26:13;;;;;;;84.20;16.50;;;9.60;99.90;;;;;;5037950;28;20169;-87
2023/03/20 07:28:39;;;;;;;84.78;16.33;;;9.60;99.90;;;;;;5021085;28;20564;-87
2023/03/20 07:31:05;;;;;;;80.77;16.37;;;9.60;99.90;;;;;;5020313;28;20165;-86
2023/03/20 07:33:31;;;;;;;77.13;12.50;;;9.60;99.90;;;;;;5020988;28;20255;-87
2023/03/20 07:35:56;;;;;;;80.30;15.70;;;9.70;99.90;;;;;;5038720;28;20473;-86
2023/03/20 07:38:22;;;;;;;79.77;14.50;;;9.70;99.90;;;;;;5037807;28;20165;-85
2023/03/20 07:40:49;;;;;;;81.18;14.80;;;9.70;99.90;;;;;;5038755;28;20676;-86
2023/03/20 07:43:16;;;;;;;82.20;14.13;;;9.70;99.90;;;;;;5038231;28;20191;-86
2023/03/20 07:45:41;;;;;;;79.00;13.80;;;9.60;99.90;;;;;;5036914;28;20567;-87
2023/03/20 07:48:07;;;;;;;81.67;14.67;;;9.60;99.90;;;;;;5036720;28;20227;-86
2023/03/20 07:50:33;;;;;;;79.43;13.30;;;9.60;99.90;;;;;;5036822;28;20161;-86
2023/03/20 07:52:59;;;;;;;77.78;12.90;;;9.70;99.90;;;;;;5037368;28;20204;-86
2023/03/20 07:55:25;;;;;;;81.13;13.87;;;9.70;99.90;;;;;;5036369;28;20161;-86
2023/03/20 07:57:51;;;;;;;73.20;12.57;;;9.80;99.90;;;;;;5037639;28;20161;-86
2023/03/20 08:00:17;;;;;;;78.60;12.20;;;9.80;99.90;;;;;;5037248;28;20414;-86
2023/03/20 08:02:43;;;;;;;75.13;10.88;;;9.70;99.90;;;;;;5037450;28;20181;-85
2023/03/20 08:05:11;;;;;;;73.70;12.67;;;9.70;99.90;;;;;;5037483;28;20193;-86
2023/03/20 08:07:37;;;;;;;74.32;11.98;;;9.80;99.90;;;;;;5036543;28;20177;-86
2023/03/20 08:10:03;;;;;;;73.90;11.70;;;9.90;99.90;;;;;;5019350;28;20171;-86
2023/03/20 08:12:29;;;;;;;75.90;11.70;;;9.90;99.90;;;;;;5038677;28;20549;-85
2023/03/20 08:14:55;;;;;;;77.67;12.20;;;9.90;99.90;;;;;;5019114;28;20253;-87
2023/03/20 08:17:20;;;;;;;75.33;12.40;;;10.00;99.90;;;;;;5037530;28;20170;-85
2023/03/20 08:19:46;;;;;;;73.57;12.77;;;10.10;99.90;;;;;;5020439;28;20177;-86
2023/03/20 08:22:12;;;;;;;73.80;11.90;;;10.10;99.90;;;;;;5037380;28;20268;-86
2023/03/20 08:24:39;;;;;;;71.65;10.45;;;10.20;99.90;;;;;;5022445;28;20249;-86
2023/03/20 08:27:04;;;;;;;75.22;11.25;;;10.20;99.90;;;;;;5039859;28;20164;-86
2023/03/20 08:29:30;;;;;;;73.27;10.57;;;10.40;99.90;;;;;;5022353;28;20228;-86
2023/03/20 08:31:56;;;;;;;71.80;8.50;;;10.30;99.90;;;;;;5040447;28;20506;-86
2023/03/20 08:34:22;;;;;;;73.90;10.40;;;10.40;99.90;;;;;;5041181;28;20162;-87
2023/03/20 08:36:48;;;;;;;74.77;8.63;;;10.50;99.90;;;;;;5040896;28;20403;-87
2023/03/20 08:39:16;;;;;;;83.37;10.50;;;10.50;99.90;;;;;;5041050;28;20215;-86
2023/03/20 08:41:44;;;;;;;71.97;9.77;;;10.60;99.90;;;;;;5023203;28;20412;-86
2023/03/20 08:44:13;;;;;;;71.45;10.50;;;10.70;99.90;;;;;;5039506;28;20193;-87
2023/03/20 08:46:39;;;;;;;72.88;10.90;;;10.70;99.90;;;;;;5023142;28;20191;-86
2023/03/20 08:49:05;;;;;;;74.27;12.03;;;10.70;99.90;;;;;;5022337;28;20192;-86
2023/03/20 08:51:31;;;;;;;75.55;12.52;;;10.90;96.90;;;;;;5039725;28;20192;-86
2023/03/20 08:53:57;;;;;;;72.32;12.18;;;10.90;95.00;;;;;;5040228;28;20228;-87
2023/03/20 08:56:22;;;;;;;73.27;12.50;;;11.00;96.40;;;;;;5040041;28;20165;-85
2023/03/20 08:58:48;;;;;;;77.53;10.83;;;11.10;93.30;;;;;;5039545;28;20491;-86
2023/03/20 09:01:14;;;;;;;75.17;11.07;;;11.10;83.10;;;;;;5021436;28;20594;-86
2023/03/20 09:03:40;;;;;;;72.17;10.43;;;11.10;86.70;;;;;;5039903;28;20419;-86
2023/03/20 09:06:07;;;;;;;71.85;10.15;;;11.10;80.40;;;;;;5023284;28;20216;-86
2023/03/20 09:08:34;;;;;;;71.20;8.20;;;11.00;66.30;;;;;;5022432;28;20563;-86
2023/03/20 09:11:00;;;;;;;74.68;11.48;;;11.10;69.40;;;;;;5040720;28;20632;-87
2023/03/20 09:13:26;;;;;;;75.07;9.47;;;11.10;69.60;;;;;;5040848;28;20272;-86
2023/03/20 09:15:53;;;;;;;72.40;9.60;;;11.20;70.00;;;;;;5040407;28;20400;-86
2023/03/20 09:18:19;;;;;;;71.20;9.05;;;11.10;59.20;;;;;;5039735;28;20499;-86
2023/03/20 09:20:46;;;;;;;76.55;8.85;;;11.10;65.90;;;;;;5021570;28;20256;-86
2023/03/20 09:23:12;;;;;;;73.75;8.82;;;11.10;55.70;;;;;;5038498;28;20260;-86
2023/03/20 09:25:37;;;;;;;72.67;8.60;;;11.10;44.80;;;;;;5021943;28;20196;-86
2023/03/20 09:28:03;;;;;;;74.00;9.10;;;11.10;37.40;;;;;;5039525;28;20188;-86
2023/03/20 09:30:29;;;;;;;74.13;8.67;;;11.10;36.20;;;;;;5038225;28;20567;-85
2023/03/20 09:32:55;;;;;;;71.55;9.18;;;11.20;40.80;;;;;;5040446;28;20435;-86
2023/03/20 09:35:21;;;;;;;73.90;9.00;;;11.20;44.90;;;;;;5038624;28;20212;-86
2023/03/20 09:37:47;;;;;;;72.50;8.40;;;11.20;45.10;;;;;;5039725;28;20411;-87
2023/03/20 09:40:53;;;;;;;73.45;8.25;;;11.20;32.90;;;;;;5040613;28;20683;-86
2023/03/20 09:43:37;;;;;;;75.13;9.90;;;11.20;33.50;;;;;;5037321;28;20209;-87
2023/03/20 09:46:15;;;;;;;72.32;9.40;;;11.20;35.00;;;;;;5038949;28;20173;-86
2023/03/20 09:49:11;;;;;;;72.05;8.52;;;11.20;36.30;;;;;;5039983;28;20640;-86
2023/03/20 09:51:54;;;;;;;75.82;9.90;;;11.30;29.40;;;;;;5040861;28;20200;-86
2023/03/20 09:54:36;;;;;;;73.95;9.52;;;11.30;28.10;;;;;;5039892;28;20621;-86
2023/03/20 09:57:03;;;;;;;73.20;9.80;;;11.30;28.00;;;;;;5039388;28;20153;-87
2023/03/20 09:59:33;;;;;;;74.03;9.30;;;11.40;32.80;;;;;;5021745;28;20192;-87
2023/03/20 10:02:06;;;;;;;74.13;9.45;;;11.40;28.90;;;;;;5038448;28;20168;-86
2023/03/20 10:04:33;;;;;;;71.03;8.57;;;11.40;23.60;;;;;;5038841;28;20160;-86
2023/03/20 10:07:03;;;;;;;74.03;8.25;;;11.40;18.40;;;;;;5038366;28;20180;-86
2023/03/20 10:09:32;;;;;;;72.90;9.15;;;11.40;25.30;;;;;;5038734;28;20185;-86
2023/03/20 10:12:15;;;;;;;82.80;9.13;;;11.40;22.80;;;;;;5037517;28;20177;-86
2023/03/20 10:14:44;;;;;;;70.15;8.30;;;11.40;31.30;;;;;;5038838;28;20154;-87
2023/03/20 10:17:31;;;;;;;70.82;7.95;;;11.50;21.90;;;;;;5039693;28;20248;-87
2023/03/20 10:20:23;;;;;;;79.53;8.77;;;11.50;17.10;;;;;;5039023;28;20165;-87
2023/03/20 10:22:58;;;;;;;70.28;7.82;;;11.50;15.80;;;;;;5033544;28;20201;-87
2023/03/20 10:25:34;;;;;;;69.35;5.75;;;11.60;2.20;;;;;;5039607;28;20149;-87
2023/03/20 10:28:33;;;;;;;71.78;6.70;;;11.60;1.00;;;;;;5039486;28;20169;-87
2023/03/20 10:31:07;;;;;;;72.72;6.13;;;11.60;1.00;;;;;;5039307;28;20157;-87
2023/03/20 10:33:55;;;;;;;71.28;5.15;;;11.70;1.00;;;;;;5036974;28;20189;-86
2023/03/20 10:36:44;;;;;;;69.95;5.07;;;11.60;1.00;;;;;;5022467;28;20157;-87
2023/03/20 10:39:18;;;;;;;69.90;5.10;;;11.60;1.00;;;;;;5039132;28;20640;-87
2023/03/20 10:41:53;;;;;;;68.93;4.47;;;11.50;1.00;;;;;;5039411;28;20228;-86
2023/03/20 10:44:42;;;;;;;72.50;5.50;;;11.50;1.00;;;;;;5039905;28;20180;-87
2023/03/20 10:47:15;;;;;;;70.70;5.30;;;11.30;1.00;;;;;;5039585;28;20185;-85
2023/03/20 10:49:52;;;;;;;70.38;5.38;;;11.10;1.00;;;;;;5038257;28;20629;-87
2023/03/20 10:52:31;;;;;;;72.85;4.88;;;11.10;1.00;;;;;;5037867;28;20652;-87
2023/03/20 10:55:02;;;;;;;72.32;5.13;;;11.10;1.00;;;;;;5023715;28;20172;-86
2023/03/20 10:57:33;;;;;;;69.53;5.57;;;11.00;1.00;;;;;;5039726;28;20149;-85
2023/03/20 10:59:59;;;;;;;71.05;5.63;;;11.10;1.00;;;;;;5039304;28;20149;-86
2023/03/20 11:02:28;;;;;;;69.78;5.70;;;11.10;1.00;;;;;;5039717;28;20185;-85
2023/03/20 11:04:54;;;;;;;70.53;5.65;;;11.20;1.00;;;;;;5036444;28;20231;-85
2023/03/20 11:07:38;;;;;;;69.70;6.20;;;11.20;1.00;;;;;;5019142;28;20256;-86
2023/03/20 11:10:04;;;;;;;74.55;6.38;;;11.10;1.00;;;;;;5036745;28;20620;-85
2023/03/20 11:12:36;;;;;;;69.80;6.63;;;11.10;1.00;;;;;;5035416;28;20246;-85
2023/03/20 11:15:30;;;;;;;68.80;5.68;;;11.20;1.00;;;;;;5019640;28;20189;-85
2023/03/20 11:17:59;;;;;;;70.22;5.43;;;11.10;1.00;;;;;;5018835;28;20201;-85
2023/03/20 11:20:31;;;;;;;68.45;5.00;;;11.20;1.00;;;;;;5035268;28;20544;-85
2023/03/20 11:23:02;;;;;;;69.97;6.07;;;11.20;1.00;;;;;;5035743;28;20185;-84
2023/03/20 11:25:32;;;;;;;74.60;5.50;;;11.20;1.00;;;;;;5036236;28;20164;-85
2023/03/20 11:28:25;;;;;;;72.10;5.10;;;11.10;1.00;;;;;;5036457;28;20260;-85
2023/03/20 11:30:58;;;;;;;72.47;5.22;;;11.00;1.00;;;;;;5018392;28;20161;-86
2023/03/20 11:33:27;;;;;;;65.40;4.10;;;10.90;1.00;;;;;;5036558;28;20181;-84
2023/03/20 11:35:55;;;;;;;72.05;4.47;;;10.90;1.00;;;;;;5018186;28;20173;-85
2023/03/20 11:38:22;;;;;;;67.05;4.75;;;10.90;1.00;;;;;;5018085;28;20173;-85
2023/03/20 11:40:51;;;;;;;69.65;4.90;;;10.90;1.00;;;;;;5017793;28;20173;-86
2023/03/20 11:43:25;;;;;;;72.05;5.55;;;10.90;1.00;;;;;;5035502;28;20270;-85
2023/03/20 11:45:59;;;;;;;68.43;4.57;;;11.00;1.00;;;;;;5101054;23;20724;-82
2023/03/20 11:48:36;;;;;;;67.85;4.65;;;11.00;1.00;;;;;;5033620;28;20214;-81
2023/03/20 11:51:04;;;;;;;66.80;4.43;;;11.10;1.00;;;;;;5037134;28;20146;-81
2023/03/20 11:53:47;;;;;;;67.53;4.57;;;11.10;1.00;;;;;;5036711;28;20189;-81
2023/03/20 11:56:22;;;;;;;67.72;4.85;;;11.20;1.00;;;;;;5036537;28;20156;-81
2023/03/20 11:58:51;;;;;;;68.97;5.45;;;11.20;1.00;;;;;;5021399;28;20177;-81
2023/03/20 12:01:17;;;;;;;67.65;4.72;;;11.40;1.00;;;;;;5022863;28;20536;-81
2023/03/20 12:03:57;;;;;;;66.13;4.43;;;11.30;1.00;;;;;;5040785;28;20196;-81
2023/03/20 12:06:41;;;;;;;70.85;5.18;;;11.40;1.00;;;;;;5040840;28;20408;-82
2023/03/20 12:09:32;;;;;;;65.07;3.95;;;11.40;1.00;;;;;;5040444;28;20239;-82
2023/03/20 12:12:31;;;;;;;67.05;4.72;;;11.40;1.00;;;;;;5040586;28;20154;-82
2023/03/20 12:15:16;;;;;;;69.13;4.75;;;11.50;1.00;;;;;;5040414;28;20145;-82
2023/03/20 12:17:53;;;;;;;66.15;3.95;;;11.50;1.00;;;;;;5040631;28;20628;-82
2023/03/20 12:20:28;;;;;;;66.43;4.22;;;11.50;1.00;;;;;;5040776;28;20207;-81
2023/03/20 12:23:21;;;;;;;66.75;4.90;;;11.40;1.00;;;;;;5040545;28;20185;-82
2023/03/20 12:26:03;;;;;;;67.38;4.85;;;11.50;1.00;;;;;;5040343;28;20498;-82
2023/03/20 12:28:52;;;;;;;69.85;5.88;;;11.50;1.00;;;;;;5040647;28;20644;-82
2023/03/20 12:31:20;;;;;;;69.28;5.78;;;11.50;1.00;;;;;;5039469;28;20184;-82
2023/03/20 12:34:10;;;;;;;66.82;4.90;;;11.50;1.00;;;;;;5040262;28;20208;-82
2023/03/20 12:36:44;;;;;;;69.68;5.45;;;11.40;1.00;;;;;;5039888;28;20169;-81
2023/03/20 12:39:23;;;;;;;67.68;5.30;;;11.50;1.00;;;;;;5040381;28;20530;-81
2023/03/20 12:42:01;;;;;;;70.15;4.28;;;11.50;1.00;;;;;;5039675;28;20215;-82
2023/03/20 12:44:57;;;;;;;83.80;4.95;;;11.40;1.00;;;;;;5022809;28;20169;-81
2023/03/20 12:47:36;;;;;;;70.82;5.15;;;11.40;1.00;;;;;;5040045;28;20153;-81
2023/03/20 12:50:13;;;;;;;71.22;5.43;;;11.50;1.00;;;;;;5040171;28;20160;-81
2023/03/20 12:53:10;;;;;;;68.50;4.68;;;11.50;1.00;;;;;;5039449;28;20192;-81
2023/03/20 12:55:41;;;;;;;65.60;4.88;;;11.60;1.00;;;;;;5040123;28;20209;-82
2023/03/20 12:58:22;;;;;;;68.88;4.55;;;11.70;1.00;;;;;;5039474;28;20233;-81
2023/03/20 13:01:03;;;;;;;73.25;4.30;;;11.80;1.00;;;;;;5040102;28;20156;-81
2023/03/20 13:04:14;;;;;;;65.28;3.78;;;11.90;1.00;;;;;;5039843;28;20183;-81
2023/03/20 13:06:52;;;;;;;66.13;4.75;;;11.90;1.00;;;;;;5040140;28;20157;-81
2023/03/20 13:09:42;;;;;;;67.72;4.05;;;12.00;1.00;;;;;;5037960;28;20149;-81
2023/03/20 13:12:17;;;;;;;70.30;3.75;;;12.20;1.00;;;;;;5020186;28;20668;-78
2023/03/20 13:15:34;;;;;;;66.90;3.97;;;12.30;1.00;;;;;;5035687;28;20240;-78
2023/03/20 13:18:32;;;;;;;65.65;3.20;;;12.30;1.00;;;;;;5010358;28;20291;-78